Bowen, Illinois
Current Conditions -  °F | °C
As of 8:54 AM on Sunday 21 Dec 2014 (Local Time) from KUIN Reporting Station
Overcast Overcast  
Wind Chill: 33°   Ceiling: 2400
Heat Index: 39°   Visibility: 8mi
Dew Point: 34°   Wind: 8mph
Humidity: 82%   Direction: 150°SSE
Pressure: 30.12"   Gusts: NA
Location:  40.23°N, 91.06°W
Report Text: KUIN 211454Z AUTO 15007KT 8SM OVC024 04/01 A3012 RMK AO2 SLP204 T00390011 58011
Loading
Personal Weather Stations






























Interactive Weather Map New forecast layout! Learn more

10-Day Weather Forecast

Advertisements
Track Severe Weather on mobile